Time;durP1;ratioP1;P1;durP2;ratioP2;P2;SDS_P1;SDS_P2;PMS_P1;PMS_P2;Temp;Humidity;BMP_temperature;BMP_pressure;BME280_temperature;BME280_humidity;BME280_pressure;Samples;Min_cycle;Max_cycle;Signal;HPM_P1;HPM_P2
2022/01/23 00:00:16;;;;;;;43.40;31.63;;;17.20;55.40;;;;;;4980302;28;92806;-71
2022/01/23 00:02:46;;;;;;;41.40;31.77;;;17.20;55.40;;;;;;4992091;28;92914;-71
2022/01/23 00:05:14;;;;;;;39.28;30.80;;;17.20;55.40;;;;;;4993184;28;93283;-70
2022/01/23 00:07:41;;;;;;;39.80;30.80;;;17.20;55.40;;;;;;4993380;28;92452;-71
2022/01/23 00:10:09;;;;;;;35.28;29.25;;;17.20;55.30;;;;;;4994022;28;91796;-71
2022/01/23 00:12:41;;;;;;;35.42;29.13;;;17.20;55.30;;;;;;4994600;28;94387;-70
2022/01/23 00:17:51;;;;;;;31.98;27.77;;;17.20;55.30;;;;;;4991373;28;94873;-71
2022/01/23 00:20:17;;;;;;;32.42;28.13;;;17.10;55.20;;;;;;4992798;28;92502;-71
2022/01/23 00:22:50;;;;;;;35.03;29.05;;;17.20;55.30;;;;;;4993518;28;93363;-70
2022/01/23 00:30:46;;;;;;;32.50;26.45;;;17.20;55.20;;;;;;4992982;28;92723;-71
2022/01/23 00:33:12;;;;;;;32.92;26.85;;;17.20;55.20;;;;;;4992131;28;94536;-71
2022/01/23 00:35:41;;;;;;;32.03;25.92;;;17.10;55.50;;;;;;4992600;28;92523;-70
2022/01/23 00:38:08;;;;;;;31.30;26.48;;;17.10;55.10;;;;;;4992451;28;92594;-71
2022/01/23 00:40:51;;;;;;;33.20;25.50;;;17.10;55.10;;;;;;4996551;28;92524;-70
2022/01/23 00:43:25;;;;;;;29.52;24.65;;;17.10;54.90;;;;;;4993879;28;96066;-70
2022/01/23 00:45:56;;;;;;;30.90;25.38;;;17.10;55.00;;;;;;4993192;28;95356;-71
2022/01/23 00:48:27;;;;;;;32.35;24.65;;;17.10;55.00;;;;;;4993112;28;93621;-72
2022/01/23 00:50:53;;;;;;;29.90;24.17;;;17.10;54.90;;;;;;4991725;28;92626;-71
2022/01/23 00:53:19;;;;;;;28.27;24.48;;;17.00;54.90;;;;;;4992791;28;93401;-70
2022/01/23 00:55:46;;;;;;;27.30;23.10;;;17.00;54.80;;;;;;4991898;28;93038;-70
2022/01/23 00:58:13;;;;;;;28.38;23.27;;;17.00;54.80;;;;;;4991657;28;93387;-70
2022/01/23 01:00:40;;;;;;;29.17;22.77;;;17.00;54.80;;;;;;4992590;28;92293;-70
2022/01/23 01:03:06;;;;;;;28.55;22.42;;;17.00;54.80;;;;;;4990888;28;93328;-70
2022/01/23 01:05:32;;;;;;;29.48;22.85;;;17.00;54.80;;;;;;4991342;28;92876;-72
2022/01/23 01:07:59;;;;;;;25.35;22.30;;;17.00;54.70;;;;;;4989823;28;95283;-70
2022/01/23 01:10:35;;;;;;;26.27;21.65;;;17.00;54.70;;;;;;4990569;28;93319;-70
2022/01/23 01:13:02;;;;;;;24.50;21.45;;;17.00;54.70;;;;;;4989269;28;93152;-70
2022/01/23 01:31:36;;;;;;;23.83;19.42;;;17.00;54.60;;;;;;4990375;28;92571;-71
2022/01/23 01:34:10;;;;;;;21.48;18.85;;;16.90;54.60;;;;;;4988870;28;95486;-71
2022/01/23 01:36:48;;;;;;;23.08;19.52;;;16.90;54.60;;;;;;4989388;28;95714;-70
2022/01/23 01:39:20;;;;;;;22.38;19.05;;;16.90;54.60;;;;;;4990529;28;92577;-71
2022/01/23 01:41:46;;;;;;;24.40;18.25;;;16.90;54.60;;;;;;4990449;28;93041;-71
2022/01/23 01:44:12;;;;;;;20.83;18.63;;;16.90;54.60;;;;;;4989408;28;94500;-70
2022/01/23 01:46:39;;;;;;;21.88;18.42;;;16.90;54.60;;;;;;4990134;28;92873;-71
2022/01/23 01:49:06;;;;;;;22.98;18.05;;;16.90;54.60;;;;;;4990127;28;92578;-71
2022/01/23 01:51:33;;;;;;;20.05;17.90;;;16.90;54.60;;;;;;4990768;28;91821;-71
2022/01/23 01:54:34;;;;;;;20.95;17.10;;;16.90;54.50;;;;;;4989839;28;93709;-70
2022/01/23 01:57:14;;;;;;;20.60;17.27;;;16.90;54.50;;;;;;4983664;28;94348;-70
2022/01/23 02:08:22;;;;;;;20.58;16.20;;;16.90;54.60;;;;;;4990003;28;93000;-72
2022/01/23 02:10:45;;;;;;;20.13;16.33;;;16.80;54.50;;;;;;4988099;28;94177;-71
2022/01/23 02:13:14;;;;;;;19.52;16.08;;;16.80;54.60;;;;;;4989888;28;92658;-71
2022/01/23 02:16:17;;;;;;;18.25;16.20;;;16.80;54.50;;;;;;4990813;28;93616;-71
2022/01/23 02:22:41;;;;;;;19.48;15.98;;;16.80;54.50;;;;;;4990339;28;94319;-70
2022/01/23 02:54:27;;;;;;;16.90;12.77;;;16.80;55.00;;;;;;4989775;28;96618;-71
2022/01/23 02:56:59;;;;;;;16.75;12.40;;;16.80;55.00;;;;;;4992690;28;93026;-71
2022/01/23 02:59:30;;;;;;;14.93;12.40;;;16.80;55.00;;;;;;4992803;28;93573;-72
2022/01/23 03:02:36;;;;;;;17.25;12.40;;;16.80;55.10;;;;;;4992177;28;92766;-71
2022/01/23 03:04:53;;;;;;;13.20;11.27;;;16.80;55.10;;;;;;4986783;28;94108;-72
2022/01/23 03:10:04;;;;;;;13.30;11.77;;;16.80;55.10;;;;;;4989860;28;93060;-71
2022/01/23 03:15:13;;;;;;;12.65;11.30;;;16.80;55.20;;;;;;4990806;28;94403;-71
2022/01/23 03:26:18;;;;;;;11.80;10.48;;;16.80;55.30;;;;;;4992412;28;92675;-72
2022/01/23 03:31:33;;;;;;;13.20;10.38;;;16.80;55.30;;;;;;4989831;28;93011;-71
2022/01/23 03:33:59;;;;;;;14.50;10.40;;;16.80;55.30;;;;;;4990944;28;93124;-72
2022/01/23 03:36:25;;;;;;;11.65;10.20;;;16.80;55.30;;;;;;4992485;28;93009;-72
2022/01/23 03:38:52;;;;;;;11.52;9.73;;;16.80;55.30;;;;;;4996522;28;92190;-71
2022/01/23 03:41:17;;;;;;;12.45;9.88;;;16.80;55.30;;;;;;4995471;28;93016;-72
2022/01/23 03:43:43;;;;;;;10.63;9.48;;;16.70;55.30;;;;;;4993071;28;94028;-72
2022/01/23 03:51:36;;;;;;;10.30;9.20;;;16.70;55.30;;;;;;4991514;28;93146;-73
2022/01/23 03:54:02;;;;;;;12.23;9.55;;;16.70;55.30;;;;;;4991511;28;94047;-72
2022/01/23 03:56:30;;;;;;;11.82;9.10;;;16.70;55.30;;;;;;4992083;28;92510;-72
2022/01/23 03:58:57;;;;;;;11.65;9.32;;;16.70;55.40;;;;;;4992149;28;92953;-72
2022/01/23 05:44:03;;;;;;;6.72;5.00;;;18.10;52.60;;;;;;5090647;22;94015;-71
2022/01/23 05:46:29;;;;;;;5.65;4.68;;;18.10;52.60;;;;;;4990122;28;92821;-72
2022/01/23 05:48:55;;;;;;;5.53;4.65;;;18.10;52.50;;;;;;4989948;28;92655;-72
2022/01/23 05:51:20;;;;;;;5.70;4.90;;;18.10;52.50;;;;;;4989936;28;94285;-72
2022/01/23 05:53:47;;;;;;;6.25;4.97;;;18.10;52.50;;;;;;4990572;28;92701;-72
2022/01/23 05:56:14;;;;;;;5.10;4.22;;;18.10;52.50;;;;;;4990071;28;92898;-72
2022/01/23 05:58:39;;;;;;;5.55;4.90;;;18.10;52.40;;;;;;4990436;28;92994;-72
2022/01/23 06:01:05;;;;;;;6.55;4.82;;;18.10;52.50;;;;;;4988126;28;100319;-72
2022/01/23 06:03:31;;;;;;;4.53;4.13;;;18.10;52.40;;;;;;4971961;28;95939;-72
2022/01/23 06:05:57;;;;;;;5.97;4.68;;;18.10;52.40;;;;;;4990206;28;92531;-71
2022/01/23 06:08:24;;;;;;;5.38;4.57;;;18.10;52.40;;;;;;4990663;28;92946;-72
2022/01/23 06:10:54;;;;;;;4.75;3.80;;;18.10;52.50;;;;;;4989827;28;93007;-71
2022/01/23 06:13:21;;;;;;;5.03;4.15;;;18.10;52.50;;;;;;4990165;28;93262;-73
2022/01/23 06:15:47;;;;;;;4.50;3.90;;;18.10;52.40;;;;;;4990863;28;92455;-72
2022/01/23 06:18:13;;;;;;;5.13;4.35;;;18.10;52.30;;;;;;4989962;28;91800;-72
2022/01/23 06:20:39;;;;;;;4.78;3.72;;;18.10;52.40;;;;;;4990248;28;93095;-72
2022/01/23 06:23:04;;;;;;;5.45;4.00;;;18.10;52.30;;;;;;4989272;28;93517;-72
2022/01/23 06:25:35;;;;;;;5.50;4.35;;;18.20;52.30;;;;;;4989072;28;95332;-72
2022/01/23 06:28:04;;;;;;;5.00;3.80;;;18.20;52.20;;;;;;4989905;28;93062;-73
2022/01/23 06:30:31;;;;;;;5.07;4.20;;;18.20;52.10;;;;;;4989050;28;92973;-72
2022/01/23 06:32:56;;;;;;;4.68;4.20;;;18.20;52.10;;;;;;4989377;28;92731;-72
2022/01/23 06:35:23;;;;;;;4.32;3.92;;;18.20;52.10;;;;;;4990225;28;92878;-72
2022/01/23 06:37:49;;;;;;;4.50;4.05;;;18.20;52.10;;;;;;4989400;28;92992;-72
2022/01/23 06:40:14;;;;;;;5.38;3.90;;;18.20;52.10;;;;;;4988489;28;92669;-73
2022/01/23 06:42:40;;;;;;;4.45;3.92;;;18.20;52.30;;;;;;4971648;28;92999;-71
2022/01/23 06:45:06;;;;;;;4.55;3.90;;;18.10;52.70;;;;;;4988525;28;92782;-71
2022/01/23 06:47:32;;;;;;;4.25;3.78;;;18.10;52.80;;;;;;4989829;28;92987;-71
2022/01/23 06:49:57;;;;;;;4.60;3.70;;;18.10;52.80;;;;;;4988564;28;95815;-67
2022/01/23 06:52:23;;;;;;;4.53;3.58;;;18.10;52.90;;;;;;4989729;28;96476;-71
2022/01/23 06:54:49;;;;;;;3.90;3.47;;;18.00;52.80;;;;;;4988641;28;93110;-70
2022/01/23 06:57:15;;;;;;;4.95;3.97;;;18.00;52.90;;;;;;4989190;28;92514;-73
2022/01/23 06:59:41;;;;;;;5.28;3.63;;;18.00;53.10;;;;;;4989366;28;93149;-72
2022/01/23 07:02:07;;;;;;;5.32;4.00;;;18.00;53.20;;;;;;4989128;28;93164;-72
2022/01/23 07:04:32;;;;;;;5.18;3.40;;;18.00;53.10;;;;;;4989211;28;92543;-71
2022/01/23 07:06:58;;;;;;;4.07;3.67;;;17.90;53.00;;;;;;4989856;28;92132;-72
2022/01/23 07:09:23;;;;;;;4.47;3.60;;;17.90;52.80;;;;;;4991561;28;94275;-71
2022/01/23 07:11:49;;;;;;;4.03;3.58;;;17.90;53.00;;;;;;4992962;28;93246;-72
2022/01/23 07:14:15;;;;;;;4.28;3.30;;;17.90;52.90;;;;;;4991696;28;95212;-71
2022/01/23 07:16:42;;;;;;;4.63;3.42;;;18.00;52.90;;;;;;4992648;28;92971;-69
2022/01/23 07:19:07;;;;;;;4.22;3.45;;;18.00;52.90;;;;;;4993700;28;93673;-72
2022/01/23 07:21:33;;;;;;;3.45;3.15;;;18.00;52.80;;;;;;4992827;28;105873;-72
2022/01/23 07:23:58;;;;;;;3.58;3.05;;;18.10;53.00;;;;;;4992607;28;93136;-72
2022/01/23 07:26:26;;;;;;;5.47;3.33;;;18.20;53.00;;;;;;4992403;28;93763;-70
2022/01/23 07:28:54;;;;;;;6.05;3.42;;;18.20;54.00;;;;;;4993062;28;94601;-73
2022/01/23 07:44:17;;;;;;;3.53;2.45;;;18.40;53.40;;;;;;5038056;22;94252;-73
2022/01/23 07:46:43;;;;;;;3.15;2.30;;;18.50;53.60;;;;;;4993125;28;92649;-73
2022/01/23 07:49:09;;;;;;;3.03;2.50;;;18.50;53.40;;;;;;4992261;28;93057;-72
2022/01/23 07:51:35;;;;;;;3.50;2.47;;;18.50;53.30;;;;;;4992440;28;92994;-72
2022/01/23 07:54:00;;;;;;;4.13;2.50;;;18.60;53.30;;;;;;4992387;28;92467;-73
2022/01/23 07:56:26;;;;;;;2.47;2.17;;;18.60;53.30;;;;;;4993958;28;91996;-73
2022/01/23 07:58:52;;;;;;;6.10;2.42;;;18.70;53.20;;;;;;4991767;28;93455;-73
2022/01/23 08:01:17;;;;;;;5.97;2.25;;;18.60;53.10;;;;;;4991551;28;92802;-71
2022/01/23 08:03:43;;;;;;;2.28;2.08;;;18.70;53.10;;;;;;4990327;28;95283;-72
2022/01/23 08:06:11;;;;;;;4.07;2.30;;;18.70;53.10;;;;;;4973133;28;92887;-72
2022/01/23 08:08:37;;;;;;;4.22;2.55;;;18.70;53.20;;;;;;4991284;28;94119;-72
2022/01/23 08:11:03;;;;;;;4.43;2.22;;;18.70;53.10;;;;;;4991373;28;94971;-74
2022/01/23 08:13:29;;;;;;;3.25;2.00;;;18.70;54.20;;;;;;4990780;28;93490;-71
2022/01/23 08:15:55;;;;;;;7.30;2.10;;;18.70;53.00;;;;;;4993016;28;93121;-70
2022/01/23 08:18:20;;;;;;;7.32;2.05;;;18.70;52.90;;;;;;4992481;28;93054;-74
2022/01/23 08:20:46;;;;;;;3.85;2.10;;;18.70;53.00;;;;;;4972672;28;95809;-72
2022/01/23 08:23:12;;;;;;;2.65;2.17;;;18.80;53.10;;;;;;4991546;28;93079;-73
2022/01/23 08:25:39;;;;;;;2.58;2.10;;;18.80;53.00;;;;;;4991460;28;92848;-73
2022/01/23 08:28:07;;;;;;;4.28;1.80;;;18.80;52.90;;;;;;4990051;28;96291;-73
2022/01/23 08:30:34;;;;;;;3.47;1.98;;;18.90;52.80;;;;;;4991741;28;95652;-73
2022/01/23 08:32:59;;;;;;;2.00;1.80;;;18.90;52.50;;;;;;4992192;28;92595;-73
2022/01/23 08:35:26;;;;;;;2.53;1.58;;;19.00;52.40;;;;;;4992019;28;92843;-73
2022/01/23 08:37:52;;;;;;;1.95;1.75;;;19.00;52.20;;;;;;4991032;28;95243;-73
2022/01/23 08:40:34;;;;;;;2.65;1.73;;;19.10;52.20;;;;;;4990676;28;95616;-73
2022/01/23 08:43:00;;;;;;;2.88;1.60;;;19.10;52.00;;;;;;4991114;28;94164;-73
2022/01/23 08:45:25;;;;;;;4.05;1.60;;;19.10;51.80;;;;;;4991284;28;92236;-73
2022/01/23 08:47:51;;;;;;;3.58;1.50;;;19.20;51.70;;;;;;4990882;28;93075;-73
2022/01/23 08:50:17;;;;;;;1.92;1.60;;;19.20;51.70;;;;;;4990671;28;93006;-73
2022/01/23 08:52:42;;;;;;;1.90;1.70;;;19.30;51.60;;;;;;4989982;28;95163;-73
2022/01/23 08:55:08;;;;;;;1.98;1.60;;;19.30;51.50;;;;;;4991588;28;93842;-72
2022/01/23 08:57:35;;;;;;;1.52;1.42;;;19.30;51.40;;;;;;4990884;28;94194;-74
2022/01/23 09:00:01;;;;;;;2.60;1.67;;;19.30;51.40;;;;;;4990914;28;93029;-73
2022/01/23 09:02:27;;;;;;;1.50;1.33;;;19.30;51.20;;;;;;4973220;28;92519;-74
2022/01/23 09:04:53;;;;;;;2.72;1.83;;;19.30;51.20;;;;;;4991002;28;92484;-71
2022/01/23 09:07:19;;;;;;;2.13;1.50;;;19.30;51.30;;;;;;4991485;28;101881;-72
2022/01/23 09:09:44;;;;;;;1.35;1.25;;;19.30;51.30;;;;;;4991734;28;92668;-72
2022/01/23 09:12:58;;;;;;;2.33;1.60;;;19.30;51.30;;;;;;4991582;28;92570;-72
2022/01/23 09:15:04;;;;;;;1.50;1.30;;;19.30;51.20;;;;;;4988269;28;92904;-73
2022/01/23 09:17:31;;;;;;;1.83;1.35;;;19.40;51.20;;;;;;4989030;28;97103;-73
2022/01/23 09:19:57;;;;;;;2.03;1.40;;;19.40;51.20;;;;;;4989869;28;95031;-73
2022/01/23 09:22:22;;;;;;;2.55;1.58;;;19.40;51.20;;;;;;4990874;28;92579;-72
2022/01/23 09:24:48;;;;;;;2.78;1.60;;;19.50;51.20;;;;;;4992041;28;94267;-72
2022/01/23 09:27:18;;;;;;;1.80;1.20;;;19.50;51.10;;;;;;4992757;28;100572;-73
2022/01/23 09:29:48;;;;;;;1.42;1.33;;;19.60;51.00;;;;;;4996081;28;93057;-72
2022/01/23 09:32:16;;;;;;;1.70;1.60;;;19.60;51.50;;;;;;4992790;28;92517;-72
2022/01/23 09:34:43;;;;;;;2.08;1.30;;;19.60;50.90;;;;;;4991576;28;91760;-73
2022/01/23 09:37:11;;;;;;;1.30;1.20;;;19.70;50.90;;;;;;4989773;28;93109;-70
2022/01/23 09:39:38;;;;;;;1.67;1.00;;;19.70;50.90;;;;;;4990394;28;92833;-72
2022/01/23 09:42:13;;;;;;;2.40;1.50;;;19.80;51.00;;;;;;4988076;28;95367;-72
2022/01/23 09:44:45;;;;;;;1.73;1.30;;;19.70;50.80;;;;;;4988892;28;94069;-73
2022/01/23 09:47:15;;;;;;;1.50;1.30;;;19.70;50.80;;;;;;4989141;28;93203;-73
2022/01/23 09:49:43;;;;;;;1.70;1.20;;;19.80;50.90;;;;;;4990486;28;92752;-73
2022/01/23 09:52:12;;;;;;;1.80;1.25;;;19.70;50.80;;;;;;4990440;28;93090;-73
2022/01/23 09:54:39;;;;;;;1.60;1.33;;;19.70;50.90;;;;;;4990172;28;92518;-73
2022/01/23 09:57:10;;;;;;;1.27;1.17;;;19.60;50.90;;;;;;4991632;28;93106;-73
2022/01/23 09:59:35;;;;;;;1.73;1.40;;;19.50;51.00;;;;;;4991127;28;92800;-73
2022/01/23 10:02:03;;;;;;;1.42;1.33;;;19.50;51.00;;;;;;4991849;28;92614;-74
2022/01/23 10:04:29;;;;;;;1.40;1.20;;;19.50;51.10;;;;;;4990189;28;93174;-72
2022/01/23 10:06:56;;;;;;;1.20;1.10;;;19.50;51.20;;;;;;4989636;28;95267;-72
2022/01/23 10:09:27;;;;;;;1.55;1.30;;;19.50;51.10;;;;;;4989117;28;94985;-72
2022/01/23 10:11:52;;;;;;;1.30;1.10;;;19.50;51.00;;;;;;4989393;28;92698;-75
2022/01/23 10:14:19;;;;;;;1.10;0.90;;;19.50;51.00;;;;;;4989701;28;92563;-72
2022/01/23 10:16:47;;;;;;;2.08;1.20;;;19.50;51.00;;;;;;4990511;28;93000;-72
2022/01/23 10:19:15;;;;;;;1.27;1.17;;;19.50;51.00;;;;;;4988653;28;93043;-72
2022/01/23 10:21:43;;;;;;;2.70;1.25;;;19.50;51.10;;;;;;4989661;28;93026;-72
2022/01/23 10:24:11;;;;;;;1.17;1.08;;;19.50;51.20;;;;;;4990125;28;91825;-72
2022/01/23 10:26:49;;;;;;;1.80;1.20;;;19.50;51.00;;;;;;4990188;28;92977;-73
2022/01/23 10:29:28;;;;;;;1.77;1.15;;;19.50;50.80;;;;;;4989164;28;94450;-73
2022/01/23 10:32:26;;;;;;;1.20;1.10;;;19.50;50.80;;;;;;4988200;28;94997;-73
2022/01/23 10:34:55;;;;;;;1.85;1.30;;;19.50;50.80;;;;;;4945230;28;92612;-73
2022/01/23 10:37:40;;;;;;;1.50;1.20;;;19.50;50.80;;;;;;4989533;28;93538;-73
2022/01/23 10:40:24;;;;;;;1.30;1.20;;;19.50;50.90;;;;;;4989835;28;94854;-73
2022/01/23 10:46:38;;;;;;;1.27;1.17;;;19.50;51.00;;;;;;4990101;28;93068;-72
2022/01/23 10:48:39;;;;;;;1.38;1.27;;;19.40;51.10;;;;;;4992723;28;92764;-73
2022/01/23 10:51:24;;;;;;;2.17;1.35;;;19.40;51.00;;;;;;4992990;28;93227;-73
2022/01/23 10:54:02;;;;;;;2.10;1.25;;;19.50;51.00;;;;;;4992270;28;93005;-71
2022/01/23 10:56:39;;;;;;;1.63;1.08;;;19.40;50.80;;;;;;4992704;28;92700;-72
2022/01/23 10:59:10;;;;;;;1.10;1.00;;;19.40;50.80;;;;;;4990836;28;95878;-72
2022/01/23 11:01:38;;;;;;;1.90;1.30;;;19.40;50.90;;;;;;4992513;28;95138;-72
2022/01/23 11:04:13;;;;;;;1.15;1.05;;;19.30;50.90;;;;;;4992562;28;92920;-73
2022/01/23 11:07:02;;;;;;;1.55;1.25;;;19.40;50.90;;;;;;4991960;28;92781;-73
2022/01/23 11:09:36;;;;;;;1.30;1.20;;;19.40;50.80;;;;;;4990646;28;94296;-73
2022/01/23 11:12:29;;;;;;;2.95;1.30;;;19.40;50.70;;;;;;4992738;28;92787;-72
2022/01/23 11:17:56;;;;;;;2.78;1.38;;;19.40;50.90;;;;;;4997633;28;91679;-72
2022/01/23 11:20:49;;;;;;;1.63;1.20;;;19.30;50.90;;;;;;4996470;28;93323;-73
2022/01/23 11:23:17;;;;;;;1.83;1.23;;;19.30;50.90;;;;;;4990311;28;92721;-73
2022/01/23 11:25:45;;;;;;;2.08;1.48;;;19.30;51.10;;;;;;4991556;28;95423;-72
2022/01/23 11:28:12;;;;;;;1.70;1.20;;;19.20;51.00;;;;;;4992275;28;93134;-73
2022/01/23 11:30:41;;;;;;;1.67;1.50;;;19.20;51.10;;;;;;4991576;28;92845;-73
2022/01/23 11:33:10;;;;;;;1.75;1.40;;;19.10;51.10;;;;;;4991157;28;92932;-73
2022/01/23 11:35:35;;;;;;;1.98;1.33;;;19.00;51.20;;;;;;4991902;28;92501;-74
2022/01/23 11:38:02;;;;;;;5.30;1.40;;;19.00;51.20;;;;;;4992203;28;93004;-74
2022/01/23 11:54:52;;;;;;;2.97;1.50;;;19.00;52.30;;;;;;4989971;28;94840;-72
2022/01/23 11:57:41;;;;;;;2.47;1.40;;;19.00;52.50;;;;;;4991931;28;92801;-73
2022/01/23 12:00:18;;;;;;;3.10;1.48;;;19.00;52.60;;;;;;4992352;28;93028;-73
2022/01/23 12:03:04;;;;;;;1.95;1.70;;;19.00;52.50;;;;;;4973119;28;93519;-72
2022/01/23 12:05:29;;;;;;;2.92;1.52;;;19.10;52.60;;;;;;4990860;28;92909;-74
2022/01/23 12:08:28;;;;;;;1.60;1.50;;;19.10;52.50;;;;;;4992150;28;92528;-74
2022/01/23 12:16:52;;;;;;;1.52;1.30;;;19.30;52.50;;;;;;4985495;28;92966;-74
2022/01/23 12:19:25;;;;;;;4.30;1.40;;;19.40;52.40;;;;;;4990767;28;94977;-73
2022/01/23 12:21:52;;;;;;;1.83;1.40;;;19.40;52.30;;;;;;4973875;28;93061;-71
2022/01/23 12:24:21;;;;;;;3.35;1.30;;;19.40;52.60;;;;;;4991812;28;92960;-72
2022/01/23 12:26:47;;;;;;;4.10;1.50;;;19.40;52.70;;;;;;4991801;28;92655;-72
2022/01/23 12:29:27;;;;;;;4.88;1.50;;;19.50;53.00;;;;;;4991582;28;92617;-71
2022/01/23 12:32:16;;;;;;;1.85;1.27;;;19.50;52.80;;;;;;4991187;28;92499;-74
2022/01/23 12:34:55;;;;;;;1.73;1.10;;;19.40;52.60;;;;;;4991610;28;92989;-73
2022/01/23 12:37:20;;;;;;;3.17;1.30;;;19.40;52.60;;;;;;4991627;28;92665;-73
2022/01/23 12:40:24;;;;;;;3.45;2.30;;;19.40;52.80;;;;;;4990938;28;92595;-74
2022/01/23 12:43:12;;;;;;;6.00;2.70;;;19.30;52.80;;;;;;4990763;28;92775;-72
2022/01/23 12:46:02;;;;;;;16.98;3.22;;;19.40;53.10;;;;;;4989385;28;95818;-73
2022/01/23 12:48:31;;;;;;;5.85;3.03;;;19.40;53.40;;;;;;4991084;28;95133;-72
2022/01/23 12:51:00;;;;;;;8.43;3.08;;;19.40;53.20;;;;;;4991592;28;92505;-72
2022/01/23 12:53:47;;;;;;;7.15;3.20;;;19.40;53.30;;;;;;4991875;28;92525;-73
2022/01/23 12:56:21;;;;;;;4.40;2.90;;;19.40;53.30;;;;;;4990257;28;93525;-70
2022/01/23 12:59:00;;;;;;;6.22;2.95;;;19.40;53.50;;;;;;4989931;28;93744;-71
2022/01/23 13:01:28;;;;;;;7.10;2.70;;;19.40;53.60;;;;;;4972811;28;92560;-70
2022/01/23 13:03:55;;;;;;;3.10;2.55;;;19.40;53.70;;;;;;4993314;28;92112;-72
2022/01/23 13:06:46;;;;;;;6.60;2.40;;;19.40;53.70;;;;;;4994609;28;92989;-71
2022/01/23 13:09:38;;;;;;;7.25;2.50;;;19.40;53.80;;;;;;4995981;28;94232;-73
2022/01/23 13:15:10;;;;;;;3.90;2.38;;;19.40;54.00;;;;;;4990188;28;92856;-73
2022/01/23 13:31:57;;;;;;;4.07;1.90;;;19.40;54.50;;;;;;4990269;28;92674;-74
2022/01/23 13:34:37;;;;;;;5.30;2.15;;;19.40;54.40;;;;;;4989821;28;92512;-74
2022/01/23 13:37:09;;;;;;;2.78;2.28;;;19.40;54.60;;;;;;4991813;28;92831;-72
2022/01/23 13:39:41;;;;;;;9.63;2.05;;;19.30;54.60;;;;;;4989224;28;96010;-72
2022/01/23 13:54:16;;;;;;;4.80;1.90;;;19.40;54.80;;;;;;4991201;28;92741;-72
2022/01/23 14:02:24;;;;;;;6.50;1.90;;;19.40;54.90;;;;;;4989668;28;93005;-73
2022/01/23 14:05:14;;;;;;;2.80;2.03;;;19.40;55.10;;;;;;4990213;28;93880;-73
2022/01/23 14:07:51;;;;;;;5.20;2.00;;;19.40;55.30;;;;;;4989328;28;95005;-73
2022/01/23 14:10:25;;;;;;;5.13;1.98;;;19.40;55.10;;;;;;4990384;28;92556;-72
2022/01/23 14:12:52;;;;;;;3.10;1.60;;;19.40;55.10;;;;;;4990631;28;92935;-71
2022/01/23 14:15:28;;;;;;;3.17;2.17;;;19.40;55.20;;;;;;4989893;28;93883;-71
2022/01/23 14:18:09;;;;;;;3.03;1.58;;;19.40;55.10;;;;;;4990076;28;93058;-72
2022/01/23 14:20:44;;;;;;;2.92;1.80;;;19.40;55.00;;;;;;4993980;28;92634;-71
2022/01/23 14:23:17;;;;;;;2.53;1.88;;;19.40;55.00;;;;;;4974966;28;95042;-71
2022/01/23 14:25:48;;;;;;;4.78;1.75;;;19.40;54.90;;;;;;4993859;28;92651;-72
2022/01/23 14:28:16;;;;;;;2.00;1.70;;;19.40;55.00;;;;;;4993783;28;93027;-70
2022/01/23 14:30:45;;;;;;;2.15;1.70;;;19.40;55.00;;;;;;4993377;28;92533;-72
2022/01/23 14:33:17;;;;;;;2.72;1.70;;;19.40;55.00;;;;;;4991892;28;97165;-72
2022/01/23 14:35:43;;;;;;;1.67;1.58;;;19.40;55.00;;;;;;4992185;28;96379;-72
2022/01/23 14:38:16;;;;;;;2.47;1.80;;;19.40;55.00;;;;;;4992674;28;92990;-72
2022/01/23 14:40:58;;;;;;;2.65;1.85;;;19.40;55.00;;;;;;4993028;28;93064;-71
2022/01/23 14:43:39;;;;;;;2.00;1.57;;;19.40;55.00;;;;;;4991844;28;94408;-72
2022/01/23 14:46:12;;;;;;;2.80;1.70;;;19.40;55.10;;;;;;4992518;28;93983;-72
2022/01/23 14:48:44;;;;;;;2.63;1.65;;;19.40;55.10;;;;;;4992596;28;92680;-72
2022/01/23 14:51:11;;;;;;;2.22;1.50;;;19.40;55.00;;;;;;4993873;28;92160;-73
2022/01/23 14:53:39;;;;;;;2.28;1.58;;;19.40;55.00;;;;;;4994757;28;94165;-73
2022/01/23 14:56:09;;;;;;;1.50;1.40;;;19.40;54.90;;;;;;4995128;28;94139;-72
2022/01/23 14:58:36;;;;;;;2.47;1.60;;;19.40;55.00;;;;;;4996985;28;95414;-72
2022/01/23 15:01:05;;;;;;;5.05;1.80;;;19.40;55.00;;;;;;4994889;28;93031;-73
2022/01/23 15:03:31;;;;;;;5.97;1.70;;;19.40;55.00;;;;;;4993110;28;92916;-73
2022/01/23 15:06:00;;;;;;;2.53;1.70;;;19.40;55.00;;;;;;4992239;28;93170;-73
2022/01/23 15:08:26;;;;;;;2.05;1.70;;;19.40;55.00;;;;;;4992555;28;92545;-73
2022/01/23 15:10:56;;;;;;;2.75;1.52;;;19.40;54.90;;;;;;4992821;28;93142;-73
2022/01/23 15:13:22;;;;;;;3.47;1.70;;;19.40;54.90;;;;;;4992015;28;93147;-72
2022/01/23 15:15:50;;;;;;;2.83;1.50;;;19.40;54.80;;;;;;4992480;28;94781;-72
2022/01/23 15:18:16;;;;;;;2.92;1.73;;;19.40;54.90;;;;;;4993029;28;92499;-73
2022/01/23 15:20:42;;;;;;;1.60;1.40;;;19.40;54.90;;;;;;4992853;28;93013;-72
2022/01/23 15:23:08;;;;;;;2.13;1.55;;;19.30;54.90;;;;;;4991392;28;95407;-75
2022/01/23 15:25:34;;;;;;;4.03;1.52;;;19.30;55.10;;;;;;4991699;28;95358;-71
2022/01/23 15:28:00;;;;;;;4.63;1.90;;;19.30;55.40;;;;;;4992307;28;92709;-72
2022/01/23 15:30:26;;;;;;;8.73;1.70;;;19.30;55.70;;;;;;4991579;28;92818;-73
2022/01/23 15:32:53;;;;;;;2.90;1.60;;;19.20;55.90;;;;;;4992101;28;94104;-71
2022/01/23 15:35:21;;;;;;;2.97;1.70;;;19.20;56.30;;;;;;4990610;28;93975;-73
2022/01/23 15:37:48;;;;;;;4.70;1.60;;;19.20;56.00;;;;;;4991331;28;92968;-73
2022/01/23 15:40:16;;;;;;;3.53;1.60;;;19.20;56.00;;;;;;4991638;28;92227;-73
2022/01/23 15:42:43;;;;;;;5.35;1.50;;;19.20;56.20;;;;;;4990906;28;93300;-70
2022/01/23 15:45:10;;;;;;;5.47;1.63;;;19.10;56.30;;;;;;4991216;28;93797;-70
2022/01/23 15:47:36;;;;;;;6.55;1.50;;;19.10;56.50;;;;;;4990728;28;94790;-74
2022/01/23 15:50:04;;;;;;;11.80;1.65;;;19.10;56.90;;;;;;4992853;28;92452;-74
2022/01/23 15:52:31;;;;;;;3.05;1.38;;;19.10;56.90;;;;;;4991735;28;92983;-73
2022/01/23 15:54:57;;;;;;;2.47;1.60;;;19.00;57.10;;;;;;4992267;28;92806;-72
2022/01/23 15:57:22;;;;;;;2.70;1.50;;;19.00;57.30;;;;;;4992203;28;92976;-71
2022/01/23 15:59:48;;;;;;;3.15;1.48;;;19.00;57.30;;;;;;4991405;28;92752;-73
2022/01/23 16:02:14;;;;;;;2.85;1.40;;;18.90;57.20;;;;;;4990873;28;93789;-72
2022/01/23 16:04:40;;;;;;;2.88;1.70;;;18.90;57.10;;;;;;4991111;28;92683;-72
2022/01/23 16:07:07;;;;;;;2.85;1.70;;;18.90;57.00;;;;;;4991727;28;92514;-73
2022/01/23 16:09:34;;;;;;;3.38;1.40;;;18.90;57.10;;;;;;4991141;28;92561;-70
2022/01/23 16:12:00;;;;;;;5.60;1.70;;;18.80;57.10;;;;;;4990451;28;96146;-72
2022/01/23 16:14:26;;;;;;;2.22;1.33;;;18.80;57.20;;;;;;4990963;28;95823;-71
2022/01/23 16:16:52;;;;;;;7.70;1.45;;;18.80;57.10;;;;;;4991419;28;92949;-70
2022/01/23 16:19:18;;;;;;;7.40;1.63;;;18.80;57.10;;;;;;4992078;28;92462;-72
2022/01/23 16:21:44;;;;;;;2.42;1.50;;;18.80;56.80;;;;;;4990636;28;93882;-73
2022/01/23 16:24:10;;;;;;;3.78;1.35;;;18.70;56.70;;;;;;4990647;28;92765;-72
2022/01/23 16:26:36;;;;;;;3.33;1.33;;;18.70;56.80;;;;;;4991477;28;92408;-73
2022/01/23 16:29:02;;;;;;;7.85;1.52;;;18.60;56.70;;;;;;4992208;28;92434;-74
2022/01/23 16:31:28;;;;;;;5.90;1.55;;;18.50;56.70;;;;;;4989921;28;96111;-72
2022/01/23 16:33:54;;;;;;;3.63;1.60;;;18.50;56.90;;;;;;4990865;28;93833;-73
2022/01/23 16:36:19;;;;;;;5.22;1.30;;;18.50;56.90;;;;;;4989635;28;95442;-72
2022/01/23 16:38:45;;;;;;;2.85;1.25;;;18.50;56.80;;;;;;4990447;28;92958;-73
2022/01/23 16:41:11;;;;;;;2.70;1.27;;;18.50;56.60;;;;;;4990569;28;95307;-72
2022/01/23 16:43:37;;;;;;;3.03;1.20;;;18.50;56.50;;;;;;4991314;28;93833;-72
2022/01/23 16:46:08;;;;;;;2.50;1.50;;;18.50;56.40;;;;;;4993330;28;92718;-73
2022/01/23 16:48:34;;;;;;;2.10;1.40;;;18.50;56.30;;;;;;4992542;28;93030;-73
2022/01/23 16:51:02;;;;;;;2.38;1.15;;;18.60;56.10;;;;;;4974446;28;94660;-72
2022/01/23 16:53:28;;;;;;;2.53;1.25;;;18.60;55.90;;;;;;4990698;28;94126;-73
2022/01/23 16:55:57;;;;;;;2.03;1.30;;;18.60;55.70;;;;;;4990080;28;93181;-73
2022/01/23 16:58:27;;;;;;;1.60;1.00;;;18.70;55.50;;;;;;4973015;28;93193;-74
2022/01/23 17:00:53;;;;;;;1.15;0.98;;;18.70;55.30;;;;;;4989235;28;95281;-73
2022/01/23 17:03:19;;;;;;;1.15;1.00;;;18.80;55.20;;;;;;4990537;28;94983;-72
2022/01/23 17:05:45;;;;;;;1.55;1.00;;;18.80;55.00;;;;;;4990582;28;92494;-73
2022/01/23 17:08:16;;;;;;;1.35;0.98;;;18.80;54.80;;;;;;4990583;28;92544;-72
2022/01/23 17:10:43;;;;;;;1.25;0.90;;;18.80;54.70;;;;;;4990080;28;93494;-73
2022/01/23 17:13:09;;;;;;;1.75;1.00;;;18.80;54.60;;;;;;4990422;28;93899;-73
2022/01/23 17:15:36;;;;;;;2.35;0.85;;;18.80;54.50;;;;;;4990205;28;92799;-74
2022/01/23 17:18:02;;;;;;;2.33;1.17;;;18.80;54.40;;;;;;4972830;28;92024;-73
2022/01/23 17:20:28;;;;;;;1.52;1.10;;;18.90;54.40;;;;;;4989757;28;92890;-74